KSIY/SIY METAR and TAF weather

Enter ICAO airport designator
Station Type Date Time Source
KSIY METAR 2020/03/31 11:53 UTC NOAA

KSIY 311153Z AUTO 22006KT 10SM FEW047 BKN055 OVC070 07/04 A3005 RMK AO2 RAE11 SLP186 P0000 60001 70001 T00670039 10083 20067 58018


Station Type Date Time Source
KSIY Decoded METAR 2020/03/31 11:53 UTC NOAA

MONTAGUE SISKIYOU COUNTY, CA, United States (KSIY) 41-46N 122-28W
Mar 31, 2020 - 07:53 AM EDT / 2020.03.31 1153 UTC
Wind: from the SW (220 degrees) at 7 MPH (6 KT):0
Visibility: 10 mile(s):0
Sky conditions: overcast
Precipitation last hour: A trace
Temperature: 44.1 F (6.7 C)
Dew Point: 39.0 F (3.9 C)
Relative Humidity: 82%
Pressure (altimeter): 30.05 in. Hg (1017 hPa)
Pressure tendency: 0.05 inches (1.8 hPa) lower than three hours ago
ob: KSIY 311153Z AUTO 22006KT 10SM FEW047 BKN055 OVC070 07/04 A3005 RMK AO2 RAE11 SLP186 P0000 60001 70001 T00670039 10083 20067 58018
cycle: 12

Station Type Date Time Source
KSIY TAF UTC NOAA

Error!

Example: see airport list